createdAt,value
2018-07-04T00:00:15.043Z,0
2018-07-04T00:01:16.803Z,0
2018-07-04T00:02:18.424Z,0
2018-07-04T00:03:20.036Z,0
2018-07-04T00:04:22.713Z,0
2018-07-04T00:05:25.442Z,0
2018-07-04T00:06:27.520Z,0
2018-07-04T00:07:29.300Z,0
2018-07-04T00:08:30.912Z,0
2018-07-04T00:09:32.534Z,0
2018-07-04T00:10:34.148Z,0
2018-07-04T00:11:35.769Z,0
2018-07-04T00:12:37.386Z,0
2018-07-04T00:13:39.001Z,0
2018-07-04T00:14:40.619Z,0
2018-07-04T00:15:42.233Z,0
2018-07-04T00:16:43.846Z,0
2018-07-04T00:17:45.471Z,0
2018-07-04T00:18:47.080Z,0
2018-07-04T00:19:48.705Z,0
2018-07-04T00:20:50.318Z,0
2018-07-04T00:21:51.932Z,0
2018-07-04T00:22:53.555Z,0
2018-07-04T00:23:55.161Z,0
2018-07-04T00:24:56.783Z,0
2018-07-04T00:25:58.402Z,0
2018-07-04T00:27:00.025Z,0
2018-07-04T00:28:01.633Z,0
2018-07-04T00:29:03.244Z,0
2018-07-04T00:30:04.862Z,0
2018-07-04T00:31:06.477Z,0
2018-07-04T00:32:08.096Z,0
2018-07-04T00:33:09.712Z,0
2018-07-04T00:34:11.328Z,0
2018-07-04T00:35:12.948Z,0
2018-07-04T00:36:14.564Z,0
2018-07-04T00:37:16.175Z,0
2018-07-04T00:38:17.796Z,0
2018-07-04T00:39:19.408Z,0
2018-07-04T00:40:21.020Z,0
2018-07-04T00:41:22.644Z,0
2018-07-04T00:42:24.258Z,0
2018-07-04T00:43:25.881Z,0
2018-07-04T00:44:27.498Z,0
2018-07-04T00:45:29.109Z,0
2018-07-04T00:46:30.725Z,0
2018-07-04T00:47:32.340Z,0
2018-07-04T00:48:33.957Z,0
2018-07-04T00:49:35.572Z,0
2018-07-04T00:50:37.197Z,0
2018-07-04T00:51:38.799Z,0
2018-07-04T00:52:40.417Z,0
2018-07-04T00:53:42.037Z,0
2018-07-04T00:54:43.655Z,0
2018-07-04T00:55:45.272Z,0
2018-07-04T00:56:46.894Z,0
2018-07-04T00:57:48.503Z,0
2018-07-04T00:58:50.118Z,0
2018-07-04T00:59:51.737Z,0
2018-07-04T01:00:53.352Z,0
2018-07-04T01:01:54.971Z,0
2018-07-04T01:02:56.592Z,0
2018-07-04T01:03:58.208Z,0
2018-07-04T01:04:59.825Z,0
2018-07-04T01:06:01.442Z,0
2018-07-04T01:07:03.053Z,0
2018-07-04T01:08:04.691Z,0
2018-07-04T01:09:06.305Z,0
2018-07-04T01:10:07.930Z,0
2018-07-04T01:11:09.545Z,0
2018-07-04T01:12:11.154Z,0
2018-07-04T01:13:12.772Z,0
2018-07-04T01:14:14.385Z,0
2018-07-04T01:15:16.001Z,0
2018-07-04T01:16:17.623Z,0
2018-07-04T01:17:19.245Z,0
2018-07-04T01:18:20.859Z,0
2018-07-04T01:19:22.472Z,0
2018-07-04T01:20:24.091Z,0
2018-07-04T01:21:25.708Z,0
2018-07-04T01:22:27.326Z,0
2018-07-04T01:23:28.945Z,0
2018-07-04T01:24:30.562Z,0
2018-07-04T01:25:32.180Z,0
2018-07-04T01:26:33.797Z,0
2018-07-04T01:27:35.413Z,0
2018-07-04T01:28:37.028Z,0
2018-07-04T01:29:38.641Z,0
2018-07-04T01:30:40.263Z,0
2018-07-04T01:31:41.882Z,0
2018-07-04T01:32:43.499Z,0
2018-07-04T01:33:45.118Z,0
2018-07-04T01:34:46.729Z,0
2018-07-04T01:35:48.349Z,0
2018-07-04T01:36:49.960Z,0
2018-07-04T01:37:51.594Z,0
2018-07-04T01:38:53.215Z,0
2018-07-04T01:39:54.829Z,0
2018-07-04T01:40:56.448Z,0
2018-07-04T01:41:58.063Z,0
2018-07-04T01:42:59.681Z,0
2018-07-04T01:44:01.515Z,0
2018-07-04T01:45:03.134Z,0
2018-07-04T01:46:04.748Z,0
2018-07-04T01:47:06.368Z,0
2018-07-04T01:48:07.981Z,0
2018-07-04T01:49:09.602Z,0
2018-07-04T01:50:11.219Z,0
2018-07-04T01:51:12.834Z,0
2018-07-04T01:52:14.448Z,0
2018-07-04T01:53:16.068Z,0
2018-07-04T01:54:17.686Z,0
2018-07-04T01:55:19.302Z,0
2018-07-04T01:56:20.926Z,0
2018-07-04T01:57:22.538Z,0
2018-07-04T01:58:24.157Z,0
2018-07-04T01:59:25.775Z,0
2018-07-04T02:00:27.394Z,0
2018-07-04T02:01:29.010Z,0
2018-07-04T02:02:30.630Z,0
2018-07-04T02:03:32.244Z,0
2018-07-04T02:04:33.863Z,0
2018-07-04T02:05:35.481Z,0
2018-07-04T02:06:37.093Z,0
2018-07-04T02:07:38.714Z,0
2018-07-04T02:08:40.334Z,0
2018-07-04T02:09:41.947Z,0
2018-07-04T02:10:43.562Z,0
2018-07-04T02:11:45.178Z,0
2018-07-04T02:12:46.787Z,0
2018-07-04T02:13:48.407Z,0
2018-07-04T02:14:50.037Z,0
2018-07-04T02:15:51.653Z,0
2018-07-04T02:16:53.263Z,0
2018-07-04T02:17:54.883Z,0
2018-07-04T02:18:56.500Z,0
2018-07-04T02:19:58.115Z,0
2018-07-04T02:20:59.729Z,0
2018-07-04T02:22:01.347Z,0
2018-07-04T02:23:02.961Z,0
2018-07-04T02:24:04.581Z,0
2018-07-04T02:25:06.191Z,0
2018-07-04T02:26:07.815Z,0
2018-07-04T02:27:09.431Z,0
2018-07-04T02:28:11.043Z,0
2018-07-04T02:29:12.667Z,0
2018-07-04T02:30:14.281Z,0
2018-07-04T02:31:15.897Z,0
2018-07-04T02:32:17.507Z,0
2018-07-04T02:33:19.126Z,0
2018-07-04T02:34:20.741Z,0
2018-07-04T02:35:22.358Z,0
2018-07-04T02:36:23.976Z,0
2018-07-04T02:37:25.599Z,0
2018-07-04T02:38:27.216Z,0
2018-07-04T02:39:28.832Z,0
2018-07-04T02:40:30.446Z,0
2018-07-04T02:41:32.063Z,0
2018-07-04T02:42:33.676Z,0
2018-07-04T02:43:35.293Z,4
2018-07-04T02:44:36.911Z,4
2018-07-04T02:45:38.521Z,0
2018-07-04T02:46:40.141Z,0
2018-07-04T02:47:41.760Z,0
2018-07-04T02:48:43.374Z,4
2018-07-04T02:49:44.992Z,4
2018-07-04T02:50:46.611Z,0
2018-07-04T02:51:48.224Z,4
2018-07-04T02:52:49.840Z,4
2018-07-04T02:53:51.456Z,4
2018-07-04T02:54:53.067Z,4
2018-07-04T02:55:54.683Z,4
2018-07-04T02:56:56.302Z,8
2018-07-04T02:57:57.923Z,8
2018-07-04T02:58:59.535Z,8
2018-07-04T03:00:01.208Z,12
2018-07-04T03:01:02.816Z,12
2018-07-04T03:02:04.433Z,16
2018-07-04T03:03:06.059Z,16
2018-07-04T03:04:08.242Z,16
2018-07-04T03:05:10.420Z,20
2018-07-04T03:06:12.044Z,20
2018-07-04T03:07:13.666Z,24
2018-07-04T03:08:15.283Z,28
2018-07-04T03:09:16.902Z,32
2018-07-04T03:10:18.518Z,36
2018-07-04T03:11:20.131Z,40
2018-07-04T03:12:21.756Z,48
2018-07-04T03:13:23.370Z,52
2018-07-04T03:14:24.985Z,56
2018-07-04T03:15:26.710Z,64
2018-07-04T03:16:28.529Z,68
2018-07-04T03:17:30.476Z,72
2018-07-04T03:18:32.292Z,80
2018-07-04T03:19:34.160Z,88
2018-07-04T03:20:35.784Z,92
2018-07-04T03:21:37.400Z,100
2018-07-04T03:22:39.024Z,108
2018-07-04T03:23:40.633Z,116
2018-07-04T03:24:42.253Z,124
2018-07-04T03:25:43.879Z,128
2018-07-04T03:26:45.502Z,136
2018-07-04T03:27:47.125Z,144
2018-07-04T03:28:48.738Z,156
2018-07-04T03:29:50.430Z,172
2018-07-04T03:30:52.045Z,184
2018-07-04T03:31:53.669Z,200
2018-07-04T03:32:55.325Z,220
2018-07-04T03:33:56.911Z,236
2018-07-04T03:34:58.533Z,248
2018-07-04T03:36:00.149Z,268
2018-07-04T03:37:01.769Z,284
2018-07-04T03:38:03.389Z,300
2018-07-04T03:39:05.005Z,320
2018-07-04T03:40:06.628Z,336
2018-07-04T03:41:08.251Z,352
2018-07-04T03:42:09.869Z,372
2018-07-04T03:43:11.485Z,388
2018-07-04T03:44:13.103Z,408
2018-07-04T03:45:14.725Z,424
2018-07-04T03:46:16.340Z,440
2018-07-04T03:47:17.956Z,456
2018-07-04T03:48:19.578Z,472
2018-07-04T03:49:21.195Z,488
2018-07-04T03:50:22.817Z,496
2018-07-04T03:51:24.437Z,496
2018-07-04T03:52:26.054Z,496
2018-07-04T03:53:27.673Z,488
2018-07-04T03:54:29.295Z,484
2018-07-04T03:55:30.926Z,488
2018-07-04T03:56:32.544Z,500
2018-07-04T03:57:34.162Z,508
2018-07-04T03:58:35.778Z,524
2018-07-04T03:59:37.394Z,536
2018-07-04T04:00:39.018Z,552
2018-07-04T04:01:40.633Z,568
2018-07-04T04:02:42.257Z,584
2018-07-04T04:03:43.880Z,604
2018-07-04T04:04:45.492Z,624
2018-07-04T04:05:47.117Z,644
2018-07-04T04:06:48.734Z,672
2018-07-04T04:07:50.351Z,700
2018-07-04T04:08:51.975Z,728
2018-07-04T04:09:53.596Z,760
2018-07-04T04:10:55.213Z,788
2018-07-04T04:11:56.827Z,824
2018-07-04T04:12:58.451Z,860
2018-07-04T04:14:00.067Z,892
2018-07-04T04:15:01.693Z,924
2018-07-04T04:16:03.315Z,960
2018-07-04T04:17:04.933Z,996
2018-07-04T04:18:06.563Z,1044
2018-07-04T04:19:08.179Z,1092
2018-07-04T04:20:09.800Z,1148
2018-07-04T04:21:11.423Z,1208
2018-07-04T04:22:13.040Z,1264
2018-07-04T04:23:14.666Z,1340
2018-07-04T04:24:16.294Z,1416
2018-07-04T04:25:17.918Z,1492
2018-07-04T04:26:19.541Z,1560
2018-07-04T04:27:21.166Z,1632
2018-07-04T04:28:22.780Z,1704
2018-07-04T04:29:24.406Z,1772
2018-07-04T04:30:26.680Z,1840
2018-07-04T04:31:28.300Z,1900
2018-07-04T04:32:29.964Z,1956
2018-07-04T04:33:31.540Z,2012
2018-07-04T04:34:33.202Z,2064
2018-07-04T04:35:34.785Z,2132
2018-07-04T04:36:37.182Z,2196
2018-07-04T04:37:38.805Z,2276
2018-07-04T04:38:40.432Z,2340
2018-07-04T04:39:42.054Z,2404
2018-07-04T04:40:43.674Z,2456
2018-07-04T04:41:45.291Z,2488
2018-07-04T04:42:46.910Z,2512
2018-07-04T04:43:48.531Z,2540
2018-07-04T04:44:50.158Z,2588
2018-07-04T04:45:51.777Z,2652
2018-07-04T04:46:53.405Z,2732
2018-07-04T04:47:55.024Z,2840
2018-07-04T04:48:56.641Z,2956
2018-07-04T04:49:58.263Z,3076
2018-07-04T04:50:59.888Z,3208
2018-07-04T04:52:01.507Z,3324
2018-07-04T04:53:03.132Z,3404
2018-07-04T04:54:04.757Z,3464
2018-07-04T04:55:06.372Z,3532
2018-07-04T04:56:08.001Z,3616
2018-07-04T04:57:09.622Z,3704
2018-07-04T04:58:11.241Z,3784
2018-07-04T04:59:12.866Z,3844
2018-07-04T05:00:14.494Z,3904
2018-07-04T05:01:16.114Z,3960
2018-07-04T05:02:17.737Z,3996
2018-07-04T05:03:19.362Z,4028
2018-07-04T05:04:20.982Z,4056
2018-07-04T05:05:23.373Z,4100
2018-07-04T05:06:25.001Z,4184
2018-07-04T05:07:26.625Z,4296
2018-07-04T05:08:28.243Z,4428
2018-07-04T05:09:29.865Z,4548
2018-07-04T05:10:31.484Z,4676
2018-07-04T05:11:33.101Z,4832
2018-07-04T05:12:34.728Z,4956
2018-07-04T05:13:36.349Z,5048
2018-07-04T05:14:37.974Z,5076
2018-07-04T05:15:39.659Z,5028
2018-07-04T05:16:41.221Z,4936
2018-07-04T05:17:42.845Z,4808
2018-07-04T05:18:44.465Z,4724
2018-07-04T05:19:46.088Z,4704
2018-07-04T05:20:47.707Z,4716
2018-07-04T05:21:49.334Z,4752
2018-07-04T05:22:50.970Z,4368
2018-07-04T05:23:52.578Z,4412
2018-07-04T05:24:54.199Z,4436
2018-07-04T05:25:55.817Z,4436
2018-07-04T05:26:57.445Z,4428
2018-07-04T05:27:59.069Z,4376
2018-07-04T05:29:00.698Z,4044
2018-07-04T05:30:02.321Z,4284
2018-07-04T05:31:04.007Z,4224
2018-07-04T05:32:05.883Z,4180
2018-07-04T05:33:07.479Z,4132
2018-07-04T05:34:10.841Z,4040
2018-07-04T05:35:12.747Z,3920
2018-07-04T05:36:14.256Z,3836
2018-07-04T05:37:16.070Z,3788
2018-07-04T05:38:17.502Z,3788
2018-07-04T05:39:19.121Z,3832
2018-07-04T05:40:20.741Z,3892
2018-07-04T05:41:22.369Z,3976
2018-07-04T05:42:23.993Z,4052
2018-07-04T05:43:25.620Z,4160
2018-07-04T05:44:27.269Z,4304
2018-07-04T05:45:28.878Z,4520
2018-07-04T05:46:30.514Z,4768
2018-07-04T05:47:32.162Z,5012
2018-07-04T05:48:33.753Z,5264
2018-07-04T05:49:35.374Z,5472
2018-07-04T05:50:36.999Z,5568
2018-07-04T05:51:38.622Z,5552
2018-07-04T05:52:40.243Z,5536
2018-07-04T05:53:41.862Z,5572
2018-07-04T05:54:43.490Z,5756
2018-07-04T05:55:45.118Z,5972
2018-07-04T05:56:46.741Z,6164
2018-07-04T05:57:48.366Z,6292
2018-07-04T05:58:49.984Z,6344
2018-07-04T05:59:51.612Z,6360
2018-07-04T06:00:53.230Z,6364
2018-07-04T06:01:54.856Z,6320
2018-07-04T06:02:56.481Z,6232
2018-07-04T06:03:58.100Z,6172
2018-07-04T06:04:59.726Z,6140
2018-07-04T06:06:01.348Z,6156
2018-07-04T06:07:02.970Z,6212
2018-07-04T06:08:04.613Z,6212
2018-07-04T06:09:06.245Z,6124
2018-07-04T06:10:07.854Z,5992
2018-07-04T06:11:09.474Z,5824
2018-07-04T06:12:11.096Z,5692
2018-07-04T06:13:12.727Z,5712
2018-07-04T06:14:14.344Z,5752
2018-07-04T06:15:15.967Z,5680
2018-07-04T06:16:17.612Z,5432
2018-07-04T06:17:19.233Z,5072
2018-07-04T06:18:20.869Z,4760
2018-07-04T06:19:22.493Z,4532
2018-07-04T06:20:24.113Z,4368
2018-07-04T06:21:25.743Z,4396
2018-07-04T06:22:27.360Z,4596
2018-07-04T06:23:28.982Z,4904
2018-07-04T06:24:30.600Z,5264
2018-07-04T06:25:32.223Z,5572
2018-07-04T06:26:33.847Z,5960
2018-07-04T06:27:35.479Z,25504
2018-07-04T06:28:37.099Z,29632
2018-07-04T06:29:38.721Z,27040
2018-07-04T06:30:40.348Z,24064
2018-07-04T06:31:41.978Z,33568
2018-07-04T06:32:43.599Z,34976
2018-07-04T06:33:45.230Z,35232
2018-07-04T06:34:46.856Z,34368
2018-07-04T06:35:48.484Z,30880
2018-07-04T06:36:50.117Z,30752
2018-07-04T06:37:51.740Z,34336
2018-07-04T06:38:53.366Z,36416
2018-07-04T06:39:54.992Z,33824
2018-07-04T06:40:56.622Z,32800
2018-07-04T06:41:58.247Z,32832
2018-07-04T06:42:59.877Z,34784
2018-07-04T06:44:01.500Z,35008
2018-07-04T06:45:03.126Z,31584
2018-07-04T06:46:04.760Z,24032
2018-07-04T06:47:06.384Z,26400
2018-07-04T06:48:08.020Z,35712
2018-07-04T06:49:09.692Z,36416
2018-07-04T06:50:11.273Z,33664
2018-07-04T06:51:12.907Z,30400
2018-07-04T06:52:14.530Z,28320
2018-07-04T06:53:16.164Z,32000
2018-07-04T06:54:17.889Z,33952
2018-07-04T06:55:19.433Z,34176
2018-07-04T06:56:21.071Z,35552
2018-07-04T06:57:22.692Z,35872
2018-07-04T06:58:24.331Z,35936
2018-07-04T06:59:25.957Z,38240
2018-07-04T07:00:27.590Z,39136
2018-07-04T07:01:29.226Z,37280
2018-07-04T07:02:30.856Z,34848
2018-07-04T07:03:32.493Z,36000
2018-07-04T07:04:34.124Z,36672
2018-07-04T07:05:35.754Z,34624
2018-07-04T07:06:37.391Z,32256
2018-07-04T07:07:39.026Z,33504
2018-07-04T07:08:40.715Z,36416
2018-07-04T07:09:42.290Z,37472
2018-07-04T07:10:43.924Z,37472
2018-07-04T07:11:45.564Z,35744
2018-07-04T07:12:47.191Z,34976
2018-07-04T07:13:48.840Z,35712
2018-07-04T07:14:50.474Z,36576
2018-07-04T07:15:52.110Z,36192
2018-07-04T07:16:53.743Z,35648
2018-07-04T07:17:55.379Z,35616
2018-07-04T07:18:57.013Z,36128
2018-07-04T07:19:58.643Z,36800
2018-07-04T07:21:00.279Z,34592
2018-07-04T07:22:01.913Z,32928
2018-07-04T07:23:03.544Z,33344
2018-07-04T07:24:05.186Z,35264
2018-07-04T07:25:06.817Z,38656
2018-07-04T07:26:08.454Z,39296
2018-07-04T07:27:10.088Z,34944
2018-07-04T07:28:11.725Z,33600
2018-07-04T07:29:13.370Z,37216
2018-07-04T07:30:15.001Z,40672
2018-07-04T07:31:16.635Z,42496
2018-07-04T07:32:18.279Z,43232
2018-07-04T07:33:19.909Z,43584
2018-07-04T07:34:21.631Z,46656
2018-07-04T07:35:23.174Z,51616
2018-07-04T07:36:24.815Z,54624
2018-07-04T07:37:26.447Z,52928
2018-07-04T07:38:28.089Z,49664
2018-07-04T07:39:29.734Z,44192
2018-07-04T07:40:31.358Z,37952
2018-07-04T07:41:33.000Z,33664
2018-07-04T07:42:34.631Z,31936
2018-07-04T07:43:36.265Z,31008
2018-07-04T07:44:37.908Z,30464
2018-07-04T07:45:39.546Z,29856
2018-07-04T07:46:41.183Z,30496
2018-07-04T07:47:42.824Z,30432
2018-07-04T07:48:44.485Z,30752
2018-07-04T07:49:46.090Z,30976
2018-07-04T07:50:47.732Z,31264
2018-07-04T07:51:49.363Z,31840
2018-07-04T07:52:51.007Z,32160
2018-07-04T07:53:52.647Z,32288
2018-07-04T07:54:54.281Z,32384
2018-07-04T07:55:55.919Z,32576
2018-07-04T07:56:57.554Z,33280
2018-07-04T07:57:59.193Z,33728
2018-07-04T07:59:00.832Z,33920
2018-07-04T08:00:02.474Z,33184
2018-07-04T08:01:04.109Z,33696
2018-07-04T08:02:05.748Z,33888
2018-07-04T08:03:07.390Z,34176
2018-07-04T08:04:09.020Z,34912
2018-07-04T08:05:10.665Z,35040
2018-07-04T08:06:12.301Z,34624
2018-07-04T08:07:13.939Z,35520
2018-07-04T08:08:15.583Z,34048
2018-07-04T08:09:17.217Z,35072
2018-07-04T08:10:18.853Z,35616
2018-07-04T08:11:20.496Z,34816
2018-07-04T08:12:22.133Z,34752
2018-07-04T08:13:23.775Z,35104
2018-07-04T08:14:25.417Z,35392
2018-07-04T08:15:27.053Z,35136
2018-07-04T08:16:28.692Z,35264
2018-07-04T08:17:30.332Z,35488
2018-07-04T08:18:31.973Z,35392
2018-07-04T08:19:33.616Z,35168
2018-07-04T08:20:35.253Z,34912
2018-07-04T08:21:36.889Z,34944
2018-07-04T08:22:38.529Z,34272
2018-07-04T08:23:40.170Z,34016
2018-07-04T08:24:41.808Z,32512
2018-07-04T08:25:43.447Z,31232
2018-07-04T08:26:45.094Z,29600
2018-07-04T08:27:47.713Z,31488
2018-07-04T08:28:49.354Z,31808
2018-07-04T08:29:50.993Z,31104
2018-07-04T08:30:52.635Z,31008
2018-07-04T08:31:54.305Z,30816
2018-07-04T08:32:55.913Z,29856
2018-07-04T08:33:57.550Z,29600
2018-07-04T08:34:59.193Z,30496
2018-07-04T08:36:00.828Z,43136
2018-07-04T08:37:02.499Z,44352
2018-07-04T08:38:04.138Z,44768
2018-07-04T08:39:05.777Z,48704
2018-07-04T08:40:07.416Z,57312
2018-07-04T08:41:09.060Z,68512
2018-07-04T08:42:10.698Z,73920
2018-07-04T08:43:12.888Z,74048
2018-07-04T08:44:14.528Z,71680
2018-07-04T08:45:16.170Z,72224
2018-07-04T08:46:17.813Z,71648
2018-07-04T08:47:19.453Z,76352
2018-07-04T08:48:21.093Z,77216
2018-07-04T08:49:22.732Z,81792
2018-07-04T08:50:24.383Z,79648
2018-07-04T08:51:26.029Z,78880
2018-07-04T08:52:27.696Z,78016
2018-07-04T08:53:29.313Z,79616
2018-07-04T08:54:30.951Z,83040
2018-07-04T08:55:32.592Z,85696
2018-07-04T08:56:34.239Z,85152
2018-07-04T08:57:35.880Z,80992
2018-07-04T08:58:37.575Z,77760
2018-07-04T08:59:39.166Z,77216
2018-07-04T09:00:40.815Z,80096
2018-07-04T09:01:42.457Z,82048
2018-07-04T09:02:44.098Z,86912
2018-07-04T09:03:45.743Z,89152
2018-07-04T09:04:47.387Z,88672
2018-07-04T09:05:49.038Z,88416
2018-07-04T09:06:50.677Z,87232
2018-07-04T09:07:52.321Z,86720
2018-07-04T09:08:53.968Z,90016
2018-07-04T09:09:55.606Z,90496
2018-07-04T09:10:57.253Z,91136
2018-07-04T09:11:58.902Z,91584
2018-07-04T09:13:00.545Z,91264
2018-07-04T09:14:02.182Z,91648
2018-07-04T09:15:03.830Z,93632
2018-07-04T09:16:05.472Z,94784
2018-07-04T09:17:07.119Z,96896
2018-07-04T09:18:08.764Z,96928
2018-07-04T09:19:10.405Z,96800
2018-07-04T09:20:12.050Z,97792
2018-07-04T09:21:14.411Z,95008
2018-07-04T09:22:16.052Z,92960
2018-07-04T09:23:17.700Z,94240
2018-07-04T09:24:19.348Z,92256
2018-07-04T09:25:20.995Z,89568
2018-07-04T09:26:22.643Z,77504
2018-07-04T09:27:24.294Z,87616
2018-07-04T09:28:25.931Z,96448
2018-07-04T09:29:27.580Z,96864
2018-07-04T09:30:29.225Z,91872
2018-07-04T09:31:30.869Z,92608
2018-07-04T09:32:32.533Z,88224
2018-07-04T09:33:34.163Z,86240
2018-07-04T09:34:35.808Z,83840
2018-07-04T09:35:37.453Z,81888
2018-07-04T09:36:39.095Z,81888
2018-07-04T09:37:40.741Z,84416
2018-07-04T09:38:42.387Z,77376
2018-07-04T09:39:44.037Z,73728
2018-07-04T09:40:45.679Z,74208
2018-07-04T09:41:47.325Z,76352
2018-07-04T09:42:48.973Z,74144
2018-07-04T09:43:50.627Z,74048
2018-07-04T09:44:52.264Z,77056
2018-07-04T09:45:53.908Z,77472
2018-07-04T09:46:55.550Z,76096
2018-07-04T09:47:57.205Z,72448
2018-07-04T09:48:58.858Z,70080
2018-07-04T09:50:00.509Z,72256
2018-07-04T09:51:02.150Z,70976
2018-07-04T09:52:03.793Z,60896
2018-07-04T09:53:05.438Z,54240
2018-07-04T09:54:07.087Z,47296
2018-07-04T09:55:08.748Z,47328
2018-07-04T09:56:10.422Z,82208
2018-07-04T09:57:12.025Z,81632
2018-07-04T09:58:13.671Z,78144
2018-07-04T09:59:15.316Z,83584
2018-07-04T10:00:16.956Z,78528
2018-07-04T10:01:18.603Z,76992
2018-07-04T10:02:20.247Z,74656
2018-07-04T10:03:21.895Z,76032
2018-07-04T10:04:23.536Z,73152
2018-07-04T10:05:25.177Z,71712
2018-07-04T10:06:26.825Z,71328
2018-07-04T10:07:28.468Z,76160
2018-07-04T10:08:30.120Z,68800
2018-07-04T10:09:31.800Z,75328
2018-07-04T10:10:34.308Z,77600
2018-07-04T10:11:35.954Z,49440
2018-07-04T10:12:37.601Z,51680
2018-07-04T10:13:39.242Z,66560
2018-07-04T10:14:40.883Z,67552
2018-07-04T10:15:42.534Z,66944
2018-07-04T10:16:44.178Z,64224
2018-07-04T10:17:45.828Z,68800
2018-07-04T10:18:47.476Z,36864
2018-07-04T10:19:49.113Z,29184
2018-07-04T10:20:50.765Z,27904
2018-07-04T10:21:52.409Z,26016
2018-07-04T10:22:54.048Z,25056
2018-07-04T10:23:55.694Z,25504
2018-07-04T10:24:57.335Z,26624
2018-07-04T10:25:58.973Z,26752
2018-07-04T10:27:00.618Z,27328
2018-07-04T10:28:02.257Z,63712
2018-07-04T10:29:03.894Z,27648
2018-07-04T10:30:05.546Z,30592
2018-07-04T10:31:07.185Z,78784
2018-07-04T10:32:08.822Z,79680
2018-07-04T10:33:10.465Z,35840
2018-07-04T10:34:12.105Z,30240
2018-07-04T10:35:13.747Z,28768
2018-07-04T10:36:15.382Z,27616
2018-07-04T10:37:17.026Z,25792
2018-07-04T10:38:18.670Z,24480
2018-07-04T10:39:20.307Z,24192
2018-07-04T10:40:21.954Z,24192
2018-07-04T10:41:23.585Z,25568
2018-07-04T10:42:25.223Z,25920
2018-07-04T10:43:26.865Z,26112
2018-07-04T10:44:28.507Z,40256
2018-07-04T10:45:30.146Z,27648
2018-07-04T10:46:31.788Z,29472
2018-07-04T10:47:33.419Z,88864
2018-07-04T10:48:35.062Z,85408
2018-07-04T10:49:36.695Z,83232
2018-07-04T10:50:38.338Z,77408
2018-07-04T10:51:39.977Z,35840
2018-07-04T10:52:42.242Z,27232
2018-07-04T10:53:43.876Z,24384
2018-07-04T10:54:45.513Z,25952
2018-07-04T10:55:47.151Z,68192
2018-07-04T10:56:48.784Z,69440
2018-07-04T10:57:50.425Z,84896
2018-07-04T10:58:52.068Z,76960
2018-07-04T10:59:53.703Z,74816
2018-07-04T11:00:55.350Z,31392
2018-07-04T11:01:56.987Z,34400
2018-07-04T11:02:58.621Z,32672
2018-07-04T11:04:00.261Z,22112
2018-07-04T11:05:01.903Z,20544
2018-07-04T11:06:03.541Z,18944
2018-07-04T11:07:05.174Z,17024
2018-07-04T11:08:06.812Z,16236
2018-07-04T11:09:08.456Z,15120
2018-07-04T11:10:10.087Z,14372
2018-07-04T11:11:11.725Z,13584
2018-07-04T11:12:13.363Z,12856
2018-07-04T11:13:15.001Z,12160
2018-07-04T11:14:16.641Z,11372
2018-07-04T11:15:18.272Z,10556
2018-07-04T11:16:19.911Z,9936
2018-07-04T11:17:21.544Z,9508
2018-07-04T11:18:23.181Z,9348
2018-07-04T11:19:24.815Z,9268
2018-07-04T11:20:26.443Z,9200
2018-07-04T11:21:28.083Z,9188
2018-07-04T11:22:29.717Z,9248
2018-07-04T11:23:31.350Z,9316
2018-07-04T11:24:32.977Z,9460
2018-07-04T11:25:34.616Z,9696
2018-07-04T11:26:36.242Z,9980
2018-07-04T11:27:37.872Z,10208
2018-07-04T11:28:39.508Z,10412
2018-07-04T11:29:41.139Z,10604
2018-07-04T11:30:42.775Z,10792
2018-07-04T11:31:44.404Z,11024
2018-07-04T11:32:46.038Z,11464
2018-07-04T11:33:47.669Z,12060
2018-07-04T11:34:49.302Z,12740
2018-07-04T11:35:50.939Z,13632
2018-07-04T11:36:52.564Z,15000
2018-07-04T11:37:54.197Z,16768
2018-07-04T11:38:55.825Z,18400
2018-07-04T11:39:57.452Z,19136
2018-07-04T11:40:59.090Z,20416
2018-07-04T11:42:00.718Z,23072
2018-07-04T11:43:02.355Z,24384
2018-07-04T11:44:03.982Z,25120
2018-07-04T11:45:05.624Z,24896
2018-07-04T11:46:07.252Z,25216
2018-07-04T11:47:08.881Z,26176
2018-07-04T11:48:10.520Z,28544
2018-07-04T11:49:12.145Z,32608
2018-07-04T11:50:13.778Z,38016
2018-07-04T11:51:15.423Z,50880
2018-07-04T11:52:17.052Z,63840
2018-07-04T11:53:18.768Z,59904
2018-07-04T11:54:20.322Z,56992
2018-07-04T11:55:21.957Z,62464
2018-07-04T11:56:23.620Z,66432
2018-07-04T11:57:25.230Z,70144
2018-07-04T11:58:26.861Z,73504
2018-07-04T11:59:28.497Z,37632
2018-07-04T12:00:30.130Z,69696
2018-07-04T12:01:31.762Z,58048
2018-07-04T12:02:33.398Z,50272
2018-07-04T12:03:35.031Z,47936
2018-07-04T12:04:36.668Z,41792
2018-07-04T12:05:38.311Z,29024
2018-07-04T12:06:39.945Z,29472
2018-07-04T12:07:41.580Z,27808
2018-07-04T12:08:43.210Z,27584
2018-07-04T12:09:44.855Z,28384
2018-07-04T12:10:46.492Z,30688
2018-07-04T12:11:48.125Z,29472
2018-07-04T12:12:49.758Z,28992
2018-07-04T12:13:51.395Z,26784
2018-07-04T12:14:53.024Z,27424
2018-07-04T12:15:54.665Z,27488
2018-07-04T12:16:56.302Z,17408
2018-07-04T12:17:57.936Z,15228
2018-07-04T12:18:59.575Z,13876
2018-07-04T12:20:01.212Z,12656
2018-07-04T12:21:02.911Z,11608
2018-07-04T12:22:04.479Z,10800
2018-07-04T12:23:06.110Z,10228
2018-07-04T12:24:07.741Z,9812
2018-07-04T12:25:09.382Z,9476
2018-07-04T12:26:11.009Z,9232
2018-07-04T12:27:12.642Z,9060
2018-07-04T12:28:14.274Z,8980
2018-07-04T12:29:15.907Z,8964
2018-07-04T12:30:17.538Z,8952
2018-07-04T12:31:19.173Z,8896
2018-07-04T12:32:20.799Z,8716
2018-07-04T12:33:22.435Z,8336
2018-07-04T12:34:24.065Z,7820
2018-07-04T12:35:25.689Z,7272
2018-07-04T12:36:27.324Z,6812
2018-07-04T12:37:29.005Z,6516
2018-07-04T12:38:30.579Z,6396
2018-07-04T12:39:32.211Z,6420
2018-07-04T12:40:33.865Z,6552
2018-07-04T12:41:35.476Z,6752
2018-07-04T12:42:37.102Z,7016
2018-07-04T12:43:38.740Z,7328
2018-07-04T12:44:40.358Z,7672
2018-07-04T12:45:41.982Z,8040
2018-07-04T12:46:43.614Z,8392
2018-07-04T12:47:45.242Z,8744
2018-07-04T12:48:46.874Z,9080
2018-07-04T12:49:48.502Z,9380
2018-07-04T12:50:50.129Z,9600
2018-07-04T12:51:51.761Z,9712
2018-07-04T12:52:53.388Z,9688
2018-07-04T12:53:55.040Z,9556
2018-07-04T12:54:56.648Z,9340
2018-07-04T12:55:58.275Z,9044
2018-07-04T12:56:59.899Z,8788
2018-07-04T12:58:01.527Z,8628
2018-07-04T12:59:03.159Z,8592
2018-07-04T13:00:04.783Z,8752
2018-07-04T13:01:06.415Z,9140
2018-07-04T13:02:08.047Z,9716
2018-07-04T13:03:09.673Z,10432
2018-07-04T13:04:11.308Z,11228
2018-07-04T13:05:12.933Z,11984
2018-07-04T13:06:14.560Z,12576
2018-07-04T13:07:16.196Z,12968
2018-07-04T13:08:17.823Z,13320
2018-07-04T13:09:19.458Z,13824
2018-07-04T13:10:21.101Z,14548
2018-07-04T13:11:22.716Z,15516
2018-07-04T13:12:24.356Z,17184
2018-07-04T13:13:25.979Z,19968
2018-07-04T13:14:27.604Z,20352
2018-07-04T13:15:29.236Z,21056
2018-07-04T13:16:30.868Z,22176
2018-07-04T13:17:32.496Z,24192
2018-07-04T13:18:34.122Z,25920
2018-07-04T13:19:35.807Z,27008
2018-07-04T13:20:37.385Z,24544
2018-07-04T13:21:39.015Z,23008
2018-07-04T13:22:40.647Z,21792
2018-07-04T13:23:42.302Z,20896
2018-07-04T13:24:43.911Z,20448
2018-07-04T13:25:46.330Z,20512
2018-07-04T13:26:47.904Z,21504
2018-07-04T13:27:49.537Z,33120
2018-07-04T13:28:51.166Z,31296
2018-07-04T13:29:52.795Z,34528
2018-07-04T13:30:54.432Z,37248
2018-07-04T13:31:56.112Z,32256
2018-07-04T13:32:57.689Z,32672
2018-07-04T13:33:59.325Z,38496
2018-07-04T13:35:00.959Z,39872
2018-07-04T13:36:02.591Z,40032
2018-07-04T13:37:04.221Z,40096
2018-07-04T13:38:05.851Z,39328
2018-07-04T13:39:07.490Z,41248
2018-07-04T13:40:09.115Z,40320
2018-07-04T13:41:10.748Z,39488
2018-07-04T13:42:12.390Z,38592
2018-07-04T13:43:14.090Z,37536
2018-07-04T13:44:15.664Z,35008
2018-07-04T13:45:17.240Z,33216
2018-07-04T13:46:18.874Z,32544
2018-07-04T13:47:20.508Z,30976
2018-07-04T13:48:22.137Z,30784